Time;durP1;ratioP1;P1;durP2;ratioP2;P2;SDS_P1;SDS_P2;PMS_P1;PMS_P2;Temp;Humidity;BMP_temperature;BMP_pressure;BME280_temperature;BME280_humidity;BME280_pressure;Samples;Min_cycle;Max_cycle;Signal;HPM_P1;HPM_P2
2021/11/06 00:00:27;;;;;;;20.48;13.05;;;;;;;3.99;100.00;96968.34;1020600;29;20027;-67
2021/11/06 00:00:58;;;;;;;25.98;12.82;;;;;;;3.97;100.00;96961.72;1018452;29;20260;-68
2021/11/06 00:01:29;;;;;;;15.20;11.55;;;;;;;4.02;100.00;96964.53;1024372;28;20015;-67
2021/11/06 00:01:59;;;;;;;14.77;11.25;;;;;;;4.03;100.00;96966.16;1025856;28;20085;-67
2021/11/06 00:02:29;;;;;;;18.35;12.20;;;;;;;3.98;100.00;96966.72;1024028;28;20024;-67
2021/11/06 00:03:00;;;;;;;15.75;12.43;;;;;;;4.06;100.00;96968.38;1018732;29;20031;-67
2021/11/06 00:03:30;;;;;;;15.32;12.07;;;;;;;4.03;100.00;96967.97;1018570;29;20020;-66
2021/11/06 00:04:01;;;;;;;14.82;11.55;;;;;;;4.01;100.00;96973.34;1022676;29;20070;-67
2021/11/06 00:04:32;;;;;;;15.60;12.02;;;;;;;3.96;100.00;96955.72;1023229;28;20043;-67
2021/11/06 00:05:03;;;;;;;15.32;11.88;;;;;;;3.91;100.00;96958.09;1034721;28;20276;-67
2021/11/06 00:05:35;;;;;;;17.17;12.13;;;;;;;3.98;100.00;96964.13;1018773;29;20036;-67
2021/11/06 00:06:05;;;;;;;16.67;12.43;;;;;;;3.97;100.00;96966.91;1018384;29;20430;-66
2021/11/06 00:06:36;;;;;;;16.88;11.55;;;;;;;3.93;100.00;96960.50;1018703;29;20319;-67
2021/11/06 00:07:06;;;;;;;15.23;11.70;;;;;;;3.95;100.00;96968.88;1022523;28;20710;-66
2021/11/06 00:07:37;;;;;;;15.73;12.45;;;;;;;3.96;100.00;96970.50;1027746;28;20027;-66
2021/11/06 00:08:07;;;;;;;16.35;12.25;;;;;;;3.96;100.00;96967.91;1029513;28;20034;-67
2021/11/06 00:08:38;;;;;;;21.90;12.55;;;;;;;3.96;100.00;96965.31;1030545;28;20040;-67
2021/11/06 00:09:08;;;;;;;19.50;11.68;;;;;;;3.96;100.00;96968.72;1034531;28;20030;-66
2021/11/06 00:09:39;;;;;;;16.75;13.00;;;;;;;3.93;100.00;96961.31;1034683;28;20038;-67
2021/11/06 00:10:10;;;;;;;16.30;12.80;;;;;;;4.02;100.00;96969.72;1026528;28;20084;-68
2021/11/06 00:10:41;;;;;;;16.80;12.70;;;;;;;3.96;100.00;96963.53;1022649;29;20516;-67
2021/11/06 00:11:11;;;;;;;16.20;11.48;;;;;;;3.93;100.00;96963.09;1018694;29;20283;-66
2021/11/06 00:11:41;;;;;;;17.33;11.95;;;;;;;3.94;100.00;96968.09;1019004;28;20515;-67
2021/11/06 00:12:12;;;;;;;17.45;12.60;;;;;;;3.85;100.00;96955.44;1030681;28;20065;-67
2021/11/06 00:12:43;;;;;;;18.05;13.48;;;;;;;3.92;100.00;96967.50;1026845;28;20689;-67
2021/11/06 00:13:14;;;;;;;17.70;11.90;;;;;;;3.92;100.00;96969.25;1027140;28;20118;-67
2021/11/06 00:13:44;;;;;;;16.50;11.55;;;;;;;3.88;100.00;96961.06;1027094;28;20059;-68
2021/11/06 00:14:14;;;;;;;16.13;11.95;;;;;;;3.86;100.00;96955.28;1027040;28;20030;-67
2021/11/06 00:14:45;;;;;;;17.33;12.48;;;;;;;3.87;100.00;96967.25;1030927;28;20033;-66
2021/11/06 00:15:15;;;;;;;17.02;12.35;;;;;;;3.92;100.00;96966.66;1027140;28;20062;-67
2021/11/06 00:15:46;;;;;;;15.10;12.05;;;;;;;3.90;100.00;96972.06;1030874;28;20030;-67
2021/11/06 00:16:16;;;;;;;14.13;11.90;;;;;;;3.92;100.00;96972.69;1022555;28;20031;-66
2021/11/06 00:16:47;;;;;;;16.25;12.45;;;;;;;3.87;100.00;96972.44;1022690;29;20031;-67
2021/11/06 00:17:17;;;;;;;16.33;11.95;;;;;;;3.88;100.00;96974.03;1018881;29;20620;-65
2021/11/06 00:17:48;;;;;;;17.92;12.32;;;;;;;3.89;100.00;96974.84;1023201;28;20039;-66
2021/11/06 00:18:18;;;;;;;14.93;12.88;;;;;;;3.88;100.00;96973.25;1026619;28;20054;-66
2021/11/06 00:18:48;;;;;;;15.85;12.88;;;;;;;3.86;100.00;96967.44;1022582;28;20039;-67
2021/11/06 00:19:19;;;;;;;16.95;13.38;;;;;;;3.87;100.00;96974.25;1024919;28;20039;-66
2021/11/06 00:19:49;;;;;;;16.48;12.55;;;;;;;3.87;100.00;96977.63;1020793;29;20035;-67
2021/11/06 00:20:20;;;;;;;18.60;13.15;;;;;;;3.89;100.00;96974.84;1018718;29;20049;-66
2021/11/06 00:20:50;;;;;;;17.23;12.88;;;;;;;3.81;100.00;96964.59;1022575;29;20067;-67
2021/11/06 00:21:21;;;;;;;17.70;12.98;;;;;;;3.83;100.00;96963.44;1018561;28;20388;-67
2021/11/06 00:21:51;;;;;;;16.52;13.02;;;;;;;3.89;100.00;96975.66;1018879;29;20047;-67
2021/11/06 00:22:22;;;;;;;17.30;12.98;;;;;;;3.89;100.00;96969.66;1010700;29;20112;-67
2021/11/06 00:22:52;;;;;;;16.65;12.50;;;;;;;3.91;100.00;96972.88;1014826;29;20028;-67
2021/11/06 00:23:23;;;;;;;17.05;13.05;;;;;;;3.86;100.00;96976.03;1018763;28;20030;-67
2021/11/06 00:23:53;;;;;;;18.10;13.18;;;;;;;3.85;100.00;96976.22;1026936;28;20030;-67
2021/11/06 00:24:24;;;;;;;24.52;14.57;;;;;;;3.86;100.00;96968.25;1030612;28;20039;-66
2021/11/06 00:24:54;;;;;;;33.55;14.25;;;;;;;3.86;100.00;96970.84;1021956;28;20027;-66
2021/11/06 00:25:25;;;;;;;19.10;13.55;;;;;;;3.86;100.00;96973.44;1022624;29;20027;-66
2021/11/06 00:25:55;;;;;;;31.50;13.98;;;;;;;3.84;100.00;96972.81;1022677;28;20043;-66
2021/11/06 00:26:25;;;;;;;66.65;17.50;;;;;;;3.76;100.00;96957.41;1021736;28;20067;-67
2021/11/06 00:26:56;;;;;;;27.85;13.82;;;;;;;3.87;100.00;96971.66;1030377;28;20160;-66
2021/11/06 00:27:26;;;;;;;21.67;13.45;;;;;;;3.87;100.00;96966.44;1034719;28;20056;-67
2021/11/06 00:27:57;;;;;;;45.55;16.08;;;;;;;3.78;100.00;96956.19;1036849;28;20867;-67
2021/11/06 00:28:27;;;;;;;33.13;14.55;;;;;;;3.92;100.00;96980.47;1036824;28;20025;-66
2021/11/06 00:28:58;;;;;;;19.80;13.75;;;;;;;3.91;100.00;96978.84;1027985;28;20038;-66
2021/11/06 00:29:28;;;;;;;16.98;13.20;;;;;;;3.84;100.00;96964.22;1026270;28;20038;-67
2021/11/06 00:29:59;;;;;;;17.05;13.05;;;;;;;3.87;100.00;96972.44;1023426;28;20039;-67
2021/11/06 00:30:29;;;;;;;17.17;13.00;;;;;;;3.83;100.00;96966.03;1024220;28;20562;-66
2021/11/06 00:31:00;;;;;;;17.27;13.18;;;;;;;3.86;100.00;96964.84;1026803;28;20086;-67
2021/11/06 00:31:30;;;;;;;20.52;13.75;;;;;;;3.86;100.00;96975.25;1033627;28;20032;-67
2021/11/06 00:32:01;;;;;;;18.23;13.52;;;;;;;3.78;100.00;96958.00;1034577;28;20032;-67
2021/11/06 00:32:31;;;;;;;19.63;14.50;;;;;;;3.64;100.00;96936.34;1034647;28;20026;-66
2021/11/06 00:33:02;;;;;;;18.80;14.52;;;;;;;3.86;100.00;96970.06;1022701;29;20098;-66
2021/11/06 00:33:32;;;;;;;17.52;13.10;;;;;;;3.82;100.00;96961.00;1018727;29;20119;-67
2021/11/06 00:34:03;;;;;;;18.17;14.73;;;;;;;3.84;100.00;96961.63;1022547;28;20513;-67
2021/11/06 00:34:33;;;;;;;16.00;12.75;;;;;;;3.79;100.00;96967.41;1022606;29;20062;-67
2021/11/06 00:35:05;;;;;;;18.30;13.88;;;;;;;3.80;100.00;96963.00;1026569;28;20042;-67
2021/11/06 00:35:35;;;;;;;16.08;13.02;;;;;;;3.73;100.00;96950.00;1025091;28;20026;-67
2021/11/06 00:36:06;;;;;;;17.25;13.88;;;;;;;3.74;100.00;96962.75;1031223;28;20297;-66
2021/11/06 00:36:36;;;;;;;20.45;14.88;;;;;;;3.78;100.00;96969.19;1034731;28;20401;-66
2021/11/06 00:37:07;;;;;;;16.73;13.13;;;;;;;3.76;100.00;96967.78;1033037;28;20119;-67
2021/11/06 00:37:38;;;;;;;17.73;14.10;;;;;;;3.75;100.00;96963.56;1030029;28;20034;-66
2021/11/06 00:38:09;;;;;;;19.73;14.52;;;;;;;3.75;100.00;96972.16;1030646;28;20493;-67
2021/11/06 00:38:39;;;;;;;18.40;14.38;;;;;;;3.75;100.00;96966.16;1030611;28;20045;-66
2021/11/06 00:39:09;;;;;;;17.85;14.45;;;;;;;3.76;100.00;96965.19;1026298;28;20521;-66
2021/11/06 00:39:40;;;;;;;16.75;14.23;;;;;;;3.72;100.00;96972.56;1026653;28;20210;-66
2021/11/06 00:40:11;;;;;;;18.90;14.20;;;;;;;3.71;100.00;96967.53;1024765;28;20078;-67
2021/11/06 00:40:42;;;;;;;17.00;13.65;;;;;;;3.69;100.00;96964.31;1030121;28;20224;-68
2021/11/06 00:41:12;;;;;;;19.35;14.73;;;;;;;3.70;100.00;96971.94;1034323;28;20268;-67
2021/11/06 00:41:42;;;;;;;19.35;14.70;;;;;;;3.73;100.00;96965.56;1032588;28;20026;-66
2021/11/06 00:42:13;;;;;;;18.83;14.80;;;;;;;3.68;100.00;96957.53;1026477;28;20041;-66
2021/11/06 00:42:44;;;;;;;18.25;14.13;;;;;;;3.68;100.00;96952.34;1022808;29;20027;-67
2021/11/06 00:43:14;;;;;;;20.55;14.15;;;;;;;3.68;100.00;96962.72;1022895;28;20038;-66
2021/11/06 00:43:45;;;;;;;17.90;14.55;;;;;;;3.67;100.00;96968.91;1026976;28;20971;-67
2021/11/06 00:44:15;;;;;;;16.83;13.68;;;;;;;3.68;100.00;96973.09;1028945;28;20038;-66
2021/11/06 00:44:46;;;;;;;16.75;13.63;;;;;;;3.63;100.00;96965.09;1026688;28;20027;-67
2021/11/06 00:45:16;;;;;;;19.88;14.50;;;;;;;3.64;100.00;96971.88;1023544;28;20053;-67
2021/11/06 00:45:47;;;;;;;16.88;13.23;;;;;;;3.66;100.00;96969.91;1026766;28;20034;-67
2021/11/06 00:46:17;;;;;;;18.58;14.18;;;;;;;3.64;100.00;96971.88;1026920;28;20035;-67
2021/11/06 00:46:48;;;;;;;18.70;15.25;;;;;;;3.62;100.00;96968.66;1026501;28;20031;-65
2021/11/06 00:47:18;;;;;;;17.58;13.90;;;;;;;3.62;100.00;96963.47;1030429;28;20034;-66
2021/11/06 00:47:48;;;;;;;20.30;15.15;;;;;;;3.53;100.00;96958.41;1030138;28;20038;-66
2021/11/06 00:48:19;;;;;;;18.35;14.43;;;;;;;3.59;100.00;96963.84;1026815;28;20031;-67
2021/11/06 00:48:49;;;;;;;19.08;15.20;;;;;;;3.57;100.00;96965.84;1026690;28;20041;-67
2021/11/06 00:49:20;;;;;;;16.25;13.82;;;;;;;3.60;100.00;96965.47;1026660;28;20034;-66
2021/11/06 00:49:50;;;;;;;18.58;14.40;;;;;;;3.57;100.00;96956.25;1026710;28;20019;-66
2021/11/06 00:50:21;;;;;;;17.35;13.43;;;;;;;3.59;100.00;96961.22;1018975;29;20031;-67
2021/11/06 00:50:51;;;;;;;20.90;14.57;;;;;;;3.62;100.00;96964.28;1026436;28;20505;-66
2021/11/06 00:51:22;;;;;;;18.60;13.95;;;;;;;3.61;100.00;96967.84;1026720;28;20094;-66
2021/11/06 00:51:52;;;;;;;19.85;14.75;;;;;;;3.62;100.00;96963.47;1026773;28;20034;-66
2021/11/06 00:52:23;;;;;;;17.73;13.88;;;;;;;3.62;100.00;96963.47;1034638;28;20501;-67
2021/11/06 00:52:53;;;;;;;18.35;14.00;;;;;;;3.58;100.00;96962.22;1026769;28;20038;-66
2021/11/06 00:53:24;;;;;;;18.70;14.32;;;;;;;3.62;100.00;96958.28;1026640;28;20030;-64
2021/11/06 00:53:54;;;;;;;18.15;14.27;;;;;;;3.61;100.00;96962.66;1026695;28;20450;-66
2021/11/06 00:54:25;;;;;;;16.67;13.60;;;;;;;3.59;100.00;96958.66;1020541;28;20031;-66
2021/11/06 00:54:56;;;;;;;19.38;14.57;;;;;;;3.62;100.00;96961.69;1026887;28;20039;-66
2021/11/06 00:55:26;;;;;;;18.42;14.27;;;;;;;3.69;100.00;96972.09;1029818;28;20037;-67
2021/11/06 00:55:56;;;;;;;21.67;14.43;;;;;;;3.69;100.00;96964.31;1034689;28;20081;-67
2021/11/06 00:56:27;;;;;;;19.30;14.20;;;;;;;3.68;100.00;96967.91;1034901;28;20037;-67
2021/11/06 00:56:57;;;;;;;20.02;14.32;;;;;;;3.66;100.00;96965.50;1034596;28;20033;-66
2021/11/06 00:57:29;;;;;;;18.77;14.57;;;;;;;3.62;100.00;96961.69;1026491;28;20030;-66
2021/11/06 00:57:59;;;;;;;17.25;14.15;;;;;;;3.63;100.00;96970.28;1030050;28;20034;-66
2021/11/06 00:58:30;;;;;;;17.88;14.13;;;;;;;3.59;100.00;96964.66;1030397;28;20279;-66
2021/11/06 00:59:00;;;;;;;22.80;14.95;;;;;;;3.60;100.00;96955.88;1023338;28;20090;-66
2021/11/06 00:59:31;;;;;;;17.67;13.55;;;;;;;3.60;100.00;96970.66;1030499;28;20568;-67
2021/11/06 01:00:04;;;;;;;17.63;13.80;;;;;;;3.52;100.00;96948.22;1030761;28;20141;-66
2021/11/06 01:00:34;;;;;;;17.65;13.05;;;;;;;3.59;100.00;96967.25;1022880;28;20118;-66
2021/11/06 01:01:05;;;;;;;15.75;12.88;;;;;;;3.53;100.00;96955.81;1026809;28;20289;-66
2021/11/06 01:01:37;;;;;;;18.75;14.10;;;;;;;3.61;100.00;96967.06;1023188;29;20115;-67
2021/11/06 01:02:07;;;;;;;19.02;13.95;;;;;;;3.53;100.00;96955.03;1022832;28;20043;-68
2021/11/06 01:02:38;;;;;;;18.95;15.02;;;;;;;3.59;100.00;96969.03;1026751;28;20270;-66
2021/11/06 01:03:08;;;;;;;17.17;13.65;;;;;;;3.58;100.00;96962.22;1030831;28;20045;-66
2021/11/06 01:03:38;;;;;;;17.77;13.90;;;;;;;3.55;100.00;96960.81;1018604;29;20078;-67
2021/11/06 01:04:09;;;;;;;23.60;15.60;;;;;;;3.53;100.00;96968.81;1014863;29;20411;-67
2021/11/06 01:04:39;;;;;;;18.63;14.98;;;;;;;3.53;100.00;96966.19;1018401;28;20035;-66
2021/11/06 01:05:10;;;;;;;20.50;14.48;;;;;;;3.45;100.00;96944.75;1022685;28;20035;-66
2021/11/06 01:05:41;;;;;;;15.95;13.45;;;;;;;3.57;100.00;96961.44;1026856;28;20026;-66
2021/11/06 01:06:11;;;;;;;18.95;14.98;;;;;;;3.55;100.00;96966.00;1022306;28;20278;-66
2021/11/06 01:06:42;;;;;;;17.60;14.00;;;;;;;3.56;100.00;96964.22;1027018;28;20034;-66
2021/11/06 01:07:12;;;;;;;19.48;15.23;;;;;;;3.53;100.00;96965.41;1026636;28;20050;-66
2021/11/06 01:07:43;;;;;;;22.40;15.00;;;;;;;3.54;100.00;96964.41;1026276;28;20057;-66
2021/11/06 01:08:13;;;;;;;17.48;13.98;;;;;;;3.51;100.00;96962.97;1034934;28;20057;-66
2021/11/06 01:08:43;;;;;;;20.55;13.77;;;;;;;3.52;100.00;96968.97;1034637;28;20022;-67
2021/11/06 01:09:14;;;;;;;19.67;14.63;;;;;;;3.51;100.00;96962.97;1034746;28;20030;-67
2021/11/06 01:09:44;;;;;;;17.80;14.02;;;;;;;3.50;100.00;96971.75;1038794;28;20017;-65
2021/11/06 01:10:15;;;;;;;21.13;14.30;;;;;;;3.48;100.00;96963.34;1034629;28;20097;-67
2021/11/06 01:10:45;;;;;;;23.30;15.05;;;;;;;3.49;100.00;96964.97;1026643;28;20498;-67
2021/11/06 01:11:16;;;;;;;20.90;15.13;;;;;;;3.46;100.00;96964.56;1022579;29;20095;-67
2021/11/06 01:11:46;;;;;;;19.25;15.07;;;;;;;3.48;100.00;96967.75;1022823;29;20050;-66
2021/11/06 01:12:17;;;;;;;21.45;15.40;;;;;;;3.43;100.00;96965.72;1026616;28;20039;-67
2021/11/06 01:12:47;;;;;;;19.33;15.32;;;;;;;3.46;100.00;96965.34;1034580;28;20030;-67
2021/11/06 01:13:19;;;;;;;18.13;14.20;;;;;;;3.48;100.00;96967.75;1034482;28;20025;-66
2021/11/06 01:13:49;;;;;;;18.52;14.32;;;;;;;3.45;100.00;96971.50;1034375;28;20088;-66
2021/11/06 01:14:20;;;;;;;20.30;14.98;;;;;;;3.40;100.00;96966.09;1034318;28;20404;-66
2021/11/06 01:14:50;;;;;;;20.00;14.60;;;;;;;3.44;100.00;96966.53;1018777;29;20035;-66
2021/11/06 01:15:21;;;;;;;18.95;14.75;;;;;;;3.44;100.00;96971.72;1022788;28;20133;-66
2021/11/06 01:15:51;;;;;;;18.23;14.70;;;;;;;3.36;100.00;96962.28;1026668;28;20848;-66
2021/11/06 01:16:21;;;;;;;18.88;14.27;;;;;;;3.39;100.00;96968.88;1022622;28;20042;-66
2021/11/06 01:16:52;;;;;;;18.80;13.98;;;;;;;3.30;100.00;96955.22;1018940;29;20020;-68
2021/11/06 01:17:22;;;;;;;18.98;14.45;;;;;;;3.15;100.00;96936.31;1018940;29;20023;-67
2021/11/06 01:17:53;;;;;;;17.83;14.10;;;;;;;3.38;100.00;96967.25;1017802;29;20116;-66
2021/11/06 01:18:23;;;;;;;19.75;15.00;;;;;;;3.38;100.00;96965.47;1022588;28;20402;-66
2021/11/06 01:18:54;;;;;;;18.38;13.57;;;;;;;3.38;100.00;96962.88;1026711;28;20034;-67
2021/11/06 01:19:24;;;;;;;18.27;14.05;;;;;;;3.33;100.00;96954.84;1022703;28;20034;-66
2021/11/06 01:19:55;;;;;;;20.23;15.45;;;;;;;3.27;100.00;96953.81;1030609;28;20032;-66
2021/11/06 01:20:26;;;;;;;19.60;14.70;;;;;;;3.35;100.00;96963.25;1026733;28;20078;-66
2021/11/06 01:20:56;;;;;;;18.33;13.52;;;;;;;3.34;100.00;96961.66;1026749;28;20048;-66
2021/11/06 01:21:28;;;;;;;20.27;14.30;;;;;;;3.34;100.00;96959.03;1026263;28;20031;-66
2021/11/06 01:21:59;;;;;;;22.83;15.07;;;;;;;3.33;100.00;96962.63;1023135;28;20445;-67
2021/11/06 01:22:29;;;;;;;18.40;14.32;;;;;;;3.34;100.00;96969.44;1022522;29;20271;-67
2021/11/06 01:23:00;;;;;;;16.73;13.60;;;;;;;3.32;100.00;96961.03;1022879;28;20023;-67
2021/11/06 01:23:30;;;;;;;18.05;13.98;;;;;;;3.34;100.00;96959.03;1026920;28;20498;-67
2021/11/06 01:24:00;;;;;;;20.52;14.65;;;;;;;3.33;100.00;96965.22;1030665;28;20084;-66
2021/11/06 01:24:31;;;;;;;19.17;14.45;;;;;;;3.25;100.00;96953.22;1034433;28;20030;-66
2021/11/06 01:25:02;;;;;;;17.85;14.63;;;;;;;3.34;100.00;96966.03;1026738;28;20039;-67
2021/11/06 01:25:33;;;;;;;20.73;13.68;;;;;;;3.35;100.00;96968.44;1026733;28;20034;-66
2021/11/06 01:26:03;;;;;;;18.42;14.38;;;;;;;3.38;100.00;96968.06;1026680;28;20286;-66
2021/11/06 01:26:34;;;;;;;18.20;14.02;;;;;;;3.38;100.00;96967.25;1018652;28;20031;-66
2021/11/06 01:27:05;;;;;;;18.63;14.05;;;;;;;3.36;100.00;96964.88;1030759;28;20038;-67
2021/11/06 01:27:36;;;;;;;17.92;13.38;;;;;;;3.16;100.00;96930.16;1030618;28;20026;-66
2021/11/06 01:28:06;;;;;;;18.35;14.23;;;;;;;3.35;100.00;96968.44;1016353;29;20295;-67
2021/11/06 01:28:36;;;;;;;20.67;14.93;;;;;;;3.27;100.00;96958.19;1015611;29;20036;-66
2021/11/06 01:29:07;;;;;;;21.10;14.23;;;;;;;3.32;100.00;96968.81;1018772;29;20544;-67
2021/11/06 01:29:38;;;;;;;21.02;15.05;;;;;;;3.29;100.00;96962.22;1018528;29;20031;-67
2021/11/06 01:30:09;;;;;;;17.27;13.68;;;;;;;3.31;100.00;96962.00;1026651;28;20038;-67
2021/11/06 01:30:40;;;;;;;17.73;13.25;;;;;;;3.31;100.00;96962.00;1022007;28;20271;-66
2021/11/06 01:31:10;;;;;;;19.75;14.60;;;;;;;3.28;100.00;96963.19;1022529;28;20290;-66
2021/11/06 01:31:40;;;;;;;17.92;13.80;;;;;;;3.33;100.00;96969.63;1019797;29;20044;-66
2021/11/06 01:32:11;;;;;;;19.50;13.98;;;;;;;3.32;100.00;96968.81;1022386;28;20039;-66
2021/11/06 01:32:44;;;;;;;20.77;14.98;;;;;;;3.33;100.00;96969.63;1026910;28;20035;-67
2021/11/06 01:33:14;;;;;;;19.63;14.63;;;;;;;3.33;100.00;96969.63;1027634;28;20058;-67
2021/11/06 01:33:45;;;;;;;20.33;14.90;;;;;;;3.28;100.00;96968.38;1026275;28;20270;-67
2021/11/06 01:34:15;;;;;;;22.20;15.55;;;;;;;3.23;100.00;96949.19;1022813;28;20494;-67
2021/11/06 01:34:46;;;;;;;26.00;16.15;;;;;;;3.34;100.00;96966.84;1022841;28;20461;-66
2021/11/06 01:35:16;;;;;;;24.75;15.95;;;;;;;3.27;100.00;96955.59;1026533;28;20031;-66
2021/11/06 01:35:47;;;;;;;24.17;14.70;;;;;;;3.34;100.00;96972.03;1026454;28;20035;-66
2021/11/06 01:36:18;;;;;;;21.52;14.40;;;;;;;3.36;100.00;96970.06;1019076;28;20051;-68
2021/11/06 01:36:49;;;;;;;21.08;14.60;;;;;;;3.29;100.00;96959.63;1018716;29;20040;-66
2021/11/06 01:37:19;;;;;;;20.85;14.90;;;;;;;3.37;100.00;96966.47;1026614;28;20262;-66
2021/11/06 01:37:50;;;;;;;21.27;15.40;;;;;;;3.36;100.00;96970.06;1025968;28;20031;-66
2021/11/06 01:38:20;;;;;;;20.00;14.48;;;;;;;3.35;100.00;96962.44;1026673;28;20039;-67
2021/11/06 01:38:51;;;;;;;22.98;15.45;;;;;;;3.37;100.00;96970.84;1018658;29;20039;-66
2021/11/06 01:39:21;;;;;;;20.58;14.88;;;;;;;3.31;100.00;96955.03;1022477;28;20036;-67
2021/11/06 01:39:52;;;;;;;20.15;15.13;;;;;;;3.30;100.00;96958.63;1018798;28;20031;-66
2021/11/06 01:40:23;;;;;;;20.30;14.23;;;;;;;3.32;100.00;96963.63;1015005;29;20119;-67
2021/11/06 01:40:54;;;;;;;21.00;14.57;;;;;;;3.35;100.00;96965.84;1016974;29;20279;-66
2021/11/06 01:41:24;;;;;;;19.02;14.25;;;;;;;3.35;100.00;96968.44;1018690;29;20039;-67
2021/11/06 01:41:55;;;;;;;19.13;14.15;;;;;;;3.27;100.00;96958.19;1018630;29;20024;-66
2021/11/06 01:42:27;;;;;;;20.90;14.30;;;;;;;3.37;100.00;96970.84;1026697;28;20077;-67
2021/11/06 01:42:57;;;;;;;21.85;15.23;;;;;;;3.37;100.00;96971.66;1030752;28;20042;-67
2021/11/06 01:43:27;;;;;;;18.33;14.13;;;;;;;3.30;100.00;96956.03;1030714;28;20818;-66
2021/11/06 01:43:58;;;;;;;23.15;14.98;;;;;;;3.38;100.00;96970.66;1030242;28;20030;-66
2021/11/06 01:44:30;;;;;;;20.80;14.50;;;;;;;3.39;100.00;96969.69;1030607;28;20426;-67
2021/11/06 01:45:00;;;;;;;21.65;14.43;;;;;;;3.36;100.00;96961.47;1030747;28;20046;-67
2021/11/06 01:45:31;;;;;;;18.85;14.30;;;;;;;3.37;100.00;96970.84;1022662;28;20286;-67
2021/11/06 01:46:02;;;;;;;21.15;14.85;;;;;;;3.38;100.00;96962.88;1022288;28;20034;-67
2021/11/06 01:46:33;;;;;;;23.55;14.80;;;;;;;3.41;100.00;96970.28;1017961;29;20067;-66
2021/11/06 01:47:03;;;;;;;18.60;14.18;;;;;;;3.37;100.00;96965.66;1018588;28;20714;-67
2021/11/06 01:47:34;;;;;;;22.67;15.57;;;;;;;3.33;100.00;96960.03;1019532;28;20031;-67
2021/11/06 01:48:04;;;;;;;18.85;13.82;;;;;;;3.42;100.00;96974.50;1025534;28;20031;-67
2021/11/06 01:48:35;;;;;;;21.88;14.98;;;;;;;3.39;100.00;96974.06;1026272;28;20027;-66
2021/11/06 01:49:05;;;;;;;21.98;14.77;;;;;;;3.38;100.00;96968.06;1030015;28;20347;-67
2021/11/06 01:49:38;;;;;;;22.60;15.45;;;;;;;3.42;100.00;96968.47;1017525;28;20435;-66
2021/11/06 01:50:09;;;;;;;25.48;15.88;;;;;;;3.42;100.00;96974.50;1013990;29;20439;-66
2021/11/06 01:50:40;;;;;;;21.92;15.18;;;;;;;3.43;100.00;96978.69;1014498;29;20370;-66
2021/11/06 01:51:10;;;;;;;21.10;14.55;;;;;;;3.38;100.00;96960.28;1019457;28;20027;-67
2021/11/06 01:51:40;;;;;;;20.98;15.13;;;;;;;3.39;100.00;96961.09;1022662;28;20031;-67
2021/11/06 01:52:11;;;;;;;20.95;14.75;;;;;;;3.42;100.00;96971.91;1022004;28;20122;-66
2021/11/06 01:52:41;;;;;;;22.50;16.13;;;;;;;3.39;100.00;96969.69;1018367;29;20039;-66
2021/11/06 01:53:12;;;;;;;19.92;15.27;;;;;;;3.41;100.00;96970.28;1014542;29;20125;-67
2021/11/06 01:53:42;;;;;;;22.15;14.98;;;;;;;3.39;100.00;96969.69;1011231;29;20059;-66
2021/11/06 01:54:13;;;;;;;21.52;14.95;;;;;;;3.44;100.00;96976.91;1017857;29;20031;-67
2021/11/06 01:54:43;;;;;;;21.35;15.18;;;;;;;3.44;100.00;96969.91;1022238;28;20027;-66
2021/11/06 01:55:14;;;;;;;18.70;13.63;;;;;;;3.37;100.00;96958.69;1025189;28;20037;-67
2021/11/06 01:55:45;;;;;;;19.90;14.63;;;;;;;3.46;100.00;96973.13;1025754;28;20054;-66
2021/11/06 01:56:15;;;;;;;21.52;14.02;;;;;;;3.42;100.00;96969.31;1019321;28;20042;-66
2021/11/06 01:56:46;;;;;;;19.95;15.13;;;;;;;3.46;100.00;96972.34;1014530;29;20507;-67
2021/11/06 01:57:16;;;;;;;20.30;15.88;;;;;;;3.38;100.00;96960.28;1026011;28;20504;-67
2021/11/06 01:57:47;;;;;;;22.48;14.95;;;;;;;3.46;100.00;96970.53;1016951;29;20526;-66
2021/11/06 01:58:19;;;;;;;18.88;14.65;;;;;;;3.45;100.00;96974.09;1021607;28;20038;-67
2021/11/06 01:58:49;;;;;;;20.48;14.70;;;;;;;3.42;100.00;96971.91;1018712;29;20032;-66
2021/11/06 01:59:21;;;;;;;19.95;14.75;;;;;;;3.43;100.00;96975.31;1022859;28;20266;-66
2021/11/06 01:59:51;;;;;;;21.55;14.75;;;;;;;3.43;100.00;96970.91;1029948;28;20038;-66
2021/11/06 02:00:25;;;;;;;27.40;14.45;;;;;;;3.43;100.00;96970.91;1022647;28;20286;-66
2021/11/06 02:00:56;;;;;;;28.85;14.82;;;;;;;3.43;100.00;96964.91;1018292;29;20024;-67
2021/11/06 02:01:26;;;;;;;30.95;15.90;;;;;;;3.42;100.00;96969.31;1018518;29;20313;-67
2021/11/06 02:01:58;;;;;;;23.42;15.35;;;;;;;3.40;100.00;96966.09;1018745;29;20279;-66
2021/11/06 02:02:28;;;;;;;29.33;14.73;;;;;;;3.35;100.00;96958.06;1022243;28;20046;-66
2021/11/06 02:02:59;;;;;;;32.58;15.32;;;;;;;3.41;100.00;96967.69;1022243;28;20258;-66
2021/11/06 02:03:30;;;;;;;19.70;14.75;;;;;;;3.33;100.00;96960.03;1022429;29;20028;-66
2021/11/06 02:04:02;;;;;;;22.10;14.77;;;;;;;3.39;100.00;96969.69;1015674;29;20191;-67
2021/11/06 02:04:33;;;;;;;22.92;15.05;;;;;;;3.38;100.00;96973.25;1022156;29;20274;-67
2021/11/06 02:05:04;;;;;;;20.45;14.75;;;;;;;3.41;100.00;96972.06;1011008;29;20375;-67
2021/11/06 02:05:35;;;;;;;22.98;15.00;;;;;;;3.39;100.00;96969.69;1018436;28;20134;-66
2021/11/06 02:06:05;;;;;;;35.60;16.80;;;;;;;3.40;100.00;96971.28;1022342;28;20279;-66
2021/11/06 02:06:35;;;;;;;26.98;15.07;;;;;;;3.40;100.00;96975.66;1024113;28;20024;-66
2021/11/06 02:07:06;;;;;;;21.05;15.07;;;;;;;3.37;100.00;96971.66;1014599;29;20060;-66
2021/11/06 02:07:36;;;;;;;25.00;15.75;;;;;;;3.39;100.00;96974.06;1032622;28;20033;-65
2021/11/06 02:08:07;;;;;;;17.95;14.45;;;;;;;3.31;100.00;96956.81;1034306;28;20042;-68
2021/11/06 02:08:37;;;;;;;19.73;14.10;;;;;;;3.36;100.00;96967.47;1026337;28;20130;-66
2021/11/06 02:09:08;;;;;;;18.67;12.50;;;;;;;3.37;100.00;96973.44;1027718;28;20043;-66
2021/11/06 02:09:39;;;;;;;17.48;14.07;;;;;;;3.37;100.00;96966.47;1030614;28;20053;-67
2021/11/06 02:10:10;;;;;;;19.00;13.77;;;;;;;3.37;100.00;96976.03;1034484;28;20468;-66
2021/11/06 02:10:41;;;;;;;18.23;13.25;;;;;;;3.37;100.00;96963.06;1030013;28;20153;-67
2021/11/06 02:11:11;;;;;;;21.35;14.65;;;;;;;3.40;100.00;96973.06;1022419;28;20282;-67
2021/11/06 02:11:42;;;;;;;20.05;14.68;;;;;;;3.34;100.00;96953.06;1027116;28;20281;-66
2021/11/06 02:12:12;;;;;;;25.85;14.70;;;;;;;3.38;100.00;96962.88;1026946;28;20045;-66
2021/11/06 02:12:43;;;;;;;23.65;15.75;;;;;;;3.36;100.00;96959.69;1026332;28;20453;-67
2021/11/06 02:13:13;;;;;;;22.17;13.93;;;;;;;3.41;100.00;96967.69;1030736;28;20023;-67
2021/11/06 02:13:44;;;;;;;20.90;14.43;;;;;;;3.33;100.00;96961.84;1026928;28;20055;-68
2021/11/06 02:14:14;;;;;;;20.63;15.40;;;;;;;3.33;100.00;96965.22;1022556;28;20387;-65
2021/11/06 02:14:45;;;;;;;21.35;14.85;;;;;;;3.34;100.00;96969.44;1010977;29;20024;-67
2021/11/06 02:15:16;;;;;;;21.63;14.77;;;;;;;3.36;100.00;96964.88;1022406;29;20032;-67
2021/11/06 02:15:47;;;;;;;23.05;15.98;;;;;;;3.37;100.00;96965.66;1022498;29;20425;-66
2021/11/06 02:16:17;;;;;;;19.73;14.82;;;;;;;3.34;100.00;96966.84;1022315;28;20354;-66
2021/11/06 02:16:48;;;;;;;19.92;14.55;;;;;;;3.34;100.00;96966.84;1026478;28;20477;-65
2021/11/06 02:17:19;;;;;;;21.58;14.48;;;;;;;3.33;100.00;96969.63;1030351;28;20069;-67
2021/11/06 02:17:50;;;;;;;23.15;15.27;;;;;;;3.33;100.00;96972.22;1029670;28;20030;-65
2021/11/06 02:18:20;;;;;;;20.38;14.55;;;;;;;3.31;100.00;96967.19;1030236;28;20044;-66
2021/11/06 02:18:51;;;;;;;29.40;15.13;;;;;;;3.33;100.00;96969.63;1026021;28;21162;-67
2021/11/06 02:19:26;;;;;;;27.45;15.65;;;;;;;3.27;100.00;96971.16;1029885;28;20061;-65
2021/11/06 02:19:56;;;;;;;24.90;15.23;;;;;;;3.31;100.00;96975.78;1031113;28;20027;-67
2021/11/06 02:20:27;;;;;;;18.85;13.32;;;;;;;3.29;100.00;96974.38;1034519;28;20268;-66
2021/11/06 02:21:02;;;;;;;19.83;14.90;;;;;;;3.20;100.00;96960.72;1034400;28;20544;-67